sensor_id;sensor_type;location;lat;lon;timestamp;pressure;altitude;pressure_sealevel;temperature;humidity
50434;BME280;36361;38.954;-9.002;2022-09-20T00:00:51;100676.47;;;24.68;89.08
50434;BME280;36361;38.954;-9.002;2022-09-20T00:02:01;100685.84;;;24.73;88.81
50434;BME280;36361;38.954;-9.002;2022-09-20T00:03:02;100681.09;;;24.59;86.64
50434;BME280;36361;38.954;-9.002;2022-09-20T00:04:03;100684.72;;;24.60;87.38
50434;BME280;36361;38.954;-9.002;2022-09-20T00:05:04;100684.50;;;24.43;86.95
50434;BME280;36361;38.954;-9.002;2022-09-20T00:06:08;100677.00;;;24.43;89.05
50434;BME280;36361;38.954;-9.002;2022-09-20T00:07:09;100674.28;;;24.38;90.10
50434;BME280;36361;38.954;-9.002;2022-09-20T00:08:16;100682.28;;;24.26;89.28
50434;BME280;36361;38.954;-9.002;2022-09-20T00:09:17;100681.50;;;24.39;87.60
50434;BME280;36361;38.954;-9.002;2022-09-20T00:10:18;100688.00;;;24.34;86.36
50434;BME280;36361;38.954;-9.002;2022-09-20T00:11:24;100689.97;;;24.34;88.70
50434;BME280;36361;38.954;-9.002;2022-09-20T00:12:25;100681.72;;;24.43;88.97
50434;BME280;36361;38.954;-9.002;2022-09-20T00:13:27;100688.31;;;24.47;89.22
50434;BME280;36361;38.954;-9.002;2022-09-20T00:14:28;100689.13;;;24.47;87.80
50434;BME280;36361;38.954;-9.002;2022-09-20T00:15:29;100687.78;;;24.58;89.07
50434;BME280;36361;38.954;-9.002;2022-09-20T00:16:32;100693.38;;;24.58;88.32
50434;BME280;36361;38.954;-9.002;2022-09-20T00:17:34;100704.81;;;24.43;86.02
50434;BME280;36361;38.954;-9.002;2022-09-20T00:18:37;100698.00;;;24.49;87.60
50434;BME280;36361;38.954;-9.002;2022-09-20T00:19:38;100696.25;;;24.53;86.11
50434;BME280;36361;38.954;-9.002;2022-09-20T00:20:46;100701.50;;;24.68;84.23
50434;BME280;36361;38.954;-9.002;2022-09-20T00:21:47;100708.75;;;24.70;84.01
50434;BME280;36361;38.954;-9.002;2022-09-20T00:22:48;100711.63;;;24.51;84.76
50434;BME280;36361;38.954;-9.002;2022-09-20T00:23:52;100709.44;;;24.48;85.48
50434;BME280;36361;38.954;-9.002;2022-09-20T00:24:52;100715.88;;;24.29;86.10
50434;BME280;36361;38.954;-9.002;2022-09-20T00:25:55;100712.94;;;24.07;87.31
50434;BME280;36361;38.954;-9.002;2022-09-20T00:26:56;100717.00;;;24.15;87.63
50434;BME280;36361;38.954;-9.002;2022-09-20T00:27:57;100718.72;;;24.10;87.76
50434;BME280;36361;38.954;-9.002;2022-09-20T00:28:58;100717.41;;;23.89;88.86
50434;BME280;36361;38.954;-9.002;2022-09-20T00:29:59;100720.94;;;23.76;90.03
50434;BME280;36361;38.954;-9.002;2022-09-20T00:31:00;100725.53;;;23.67;90.01
50434;BME280;36361;38.954;-9.002;2022-09-20T00:32:00;100715.69;;;23.74;89.61
50434;BME280;36361;38.954;-9.002;2022-09-20T00:33:01;100714.44;;;23.67;89.74
50434;BME280;36361;38.954;-9.002;2022-09-20T00:34:02;100717.34;;;23.56;90.21
50434;BME280;36361;38.954;-9.002;2022-09-20T00:35:21;100728.94;;;23.64;90.79
50434;BME280;36361;38.954;-9.002;2022-09-20T00:36:22;100725.03;;;23.65;90.19
50434;BME280;36361;38.954;-9.002;2022-09-20T00:37:22;100723.41;;;23.59;90.17
50434;BME280;36361;38.954;-9.002;2022-09-20T00:38:26;100730.78;;;23.49;90.84
50434;BME280;36361;38.954;-9.002;2022-09-20T00:39:26;100732.00;;;23.43;91.83
50434;BME280;36361;38.954;-9.002;2022-09-20T00:40:27;100728.69;;;23.41;92.07
50434;BME280;36361;38.954;-9.002;2022-09-20T00:41:29;100724.94;;;23.51;91.34
50434;BME280;36361;38.954;-9.002;2022-09-20T00:42:33;100726.81;;;23.55;91.61
50434;BME280;36361;38.954;-9.002;2022-09-20T00:43:43;100721.25;;;23.55;91.25
50434;BME280;36361;38.954;-9.002;2022-09-20T00:44:53;100720.94;;;23.76;90.32
50434;BME280;36361;38.954;-9.002;2022-09-20T00:46:00;100716.97;;;23.82;90.26
50434;BME280;36361;38.954;-9.002;2022-09-20T00:47:03;100727.31;;;23.95;89.55
50434;BME280;36361;38.954;-9.002;2022-09-20T00:49:15;100722.50;;;24.01;89.29
50434;BME280;36361;38.954;-9.002;2022-09-20T00:50:43;100714.78;;;23.98;89.38
50434;BME280;36361;38.954;-9.002;2022-09-20T00:51:49;100717.50;;;23.65;90.51
50434;BME280;36361;38.954;-9.002;2022-09-20T00:52:57;100716.72;;;23.41;92.49
50434;BME280;36361;38.954;-9.002;2022-09-20T00:54:01;100720.94;;;23.38;92.46
50434;BME280;36361;38.954;-9.002;2022-09-20T00:55:06;100720.59;;;23.64;91.50
50434;BME280;36361;38.954;-9.002;2022-09-20T00:56:14;100721.63;;;23.68;91.24
50434;BME280;36361;38.954;-9.002;2022-09-20T00:57:17;100718.47;;;23.55;91.64
50434;BME280;36361;38.954;-9.002;2022-09-20T00:58:19;100709.41;;;23.50;91.90
50434;BME280;36361;38.954;-9.002;2022-09-20T00:59:34;100705.41;;;23.37;93.43
50434;BME280;36361;38.954;-9.002;2022-09-20T01:00:36;100721.56;;;23.54;92.78
50434;BME280;36361;38.954;-9.002;2022-09-20T01:01:38;100719.38;;;23.32;94.07
50434;BME280;36361;38.954;-9.002;2022-09-20T01:02:42;100709.31;;;23.17;95.38
50434;BME280;36361;38.954;-9.002;2022-09-20T01:03:46;100717.78;;;23.26;94.42
50434;BME280;36361;38.954;-9.002;2022-09-20T01:04:47;100711.97;;;23.04;95.74
50434;BME280;36361;38.954;-9.002;2022-09-20T01:05:52;100709.38;;;23.12;95.97
50434;BME280;36361;38.954;-9.002;2022-09-20T01:07:02;100711.25;;;23.17;95.28
50434;BME280;36361;38.954;-9.002;2022-09-20T01:08:05;100710.66;;;23.20;95.76
50434;BME280;36361;38.954;-9.002;2022-09-20T01:09:06;100713.72;;;23.18;95.79
50434;BME280;36361;38.954;-9.002;2022-09-20T01:10:07;100712.25;;;23.26;95.21
50434;BME280;36361;38.954;-9.002;2022-09-20T01:11:08;100711.25;;;23.17;95.53
50434;BME280;36361;38.954;-9.002;2022-09-20T01:12:13;100704.06;;;23.16;96.04
50434;BME280;36361;38.954;-9.002;2022-09-20T01:13:15;100699.09;;;23.13;96.13
50434;BME280;36361;38.954;-9.002;2022-09-20T01:14:16;100703.88;;;22.88;96.79
50434;BME280;36361;38.954;-9.002;2022-09-20T01:15:19;100703.06;;;23.07;96.29
50434;BME280;36361;38.954;-9.002;2022-09-20T01:16:23;100704.06;;;23.16;96.02
50434;BME280;36361;38.954;-9.002;2022-09-20T01:17:26;100707.13;;;22.95;97.03
50434;BME280;36361;38.954;-9.002;2022-09-20T01:18:31;100712.06;;;22.98;96.60
50434;BME280;36361;38.954;-9.002;2022-09-20T01:20:42;100707.84;;;23.01;96.04
50434;BME280;36361;38.954;-9.002;2022-09-20T01:21:45;100710.13;;;23.18;94.66
50434;BME280;36361;38.954;-9.002;2022-09-20T01:25:09;100703.91;;;23.26;93.81
50434;BME280;36361;38.954;-9.002;2022-09-20T01:27:41;100699.69;;;23.10;95.59
50434;BME280;36361;38.954;-9.002;2022-09-20T01:28:45;100704.91;;;22.92;95.99
50434;BME280;36361;38.954;-9.002;2022-09-20T01:30:06;100700.50;;;23.10;95.22
50434;BME280;36361;38.954;-9.002;2022-09-20T01:31:32;100699.16;;;23.08;94.83
50434;BME280;36361;38.954;-9.002;2022-09-20T01:34:13;100696.78;;;23.20;94.48
50434;BME280;36361;38.954;-9.002;2022-09-20T01:35:17;100703.22;;;22.96;95.82
50434;BME280;36361;38.954;-9.002;2022-09-20T01:36:24;100699.38;;;22.92;95.70
50434;BME280;36361;38.954;-9.002;2022-09-20T01:37:49;100697.25;;;22.84;96.45
50434;BME280;36361;38.954;-9.002;2022-09-20T01:41:58;100694.50;;;22.79;96.83
50434;BME280;36361;38.954;-9.002;2022-09-20T01:43:14;100702.59;;;22.99;96.16
50434;BME280;36361;38.954;-9.002;2022-09-20T01:44:23;100698.00;;;23.14;95.17
50434;BME280;36361;38.954;-9.002;2022-09-20T01:45:32;100692.94;;;23.16;94.39
50434;BME280;36361;38.954;-9.002;2022-09-20T01:46:35;100690.03;;;23.26;93.99
50434;BME280;36361;38.954;-9.002;2022-09-20T01:50:35;100695.22;;;23.51;91.69
50434;BME280;36361;38.954;-9.002;2022-09-20T02:01:13;100687.47;;;23.30;92.74
50434;BME280;36361;38.954;-9.002;2022-09-20T02:05:11;100679.19;;;22.87;96.00
50434;BME280;36361;38.954;-9.002;2022-09-20T02:12:25;100676.69;;;22.85;96.99
50434;BME280;36361;38.954;-9.002;2022-09-20T02:13:29;100670.66;;;22.78;97.56
50434;BME280;36361;38.954;-9.002;2022-09-20T02:21:33;100679.13;;;23.11;93.82
50434;BME280;36361;38.954;-9.002;2022-09-20T02:22:41;100678.56;;;23.14;94.29
50434;BME280;36361;38.954;-9.002;2022-09-20T02:28:22;100673.06;;;23.27;91.00
50434;BME280;36361;38.954;-9.002;2022-09-20T02:34:58;100664.88;;;23.36;88.94
50434;BME280;36361;38.954;-9.002;2022-09-20T02:38:00;100660.69;;;23.20;87.46
50434;BME280;36361;38.954;-9.002;2022-09-20T02:39:42;100653.78;;;23.36;88.63
50434;BME280;36361;38.954;-9.002;2022-09-20T02:42:20;100660.22;;;23.50;85.60
50434;BME280;36361;38.954;-9.002;2022-09-20T02:43:54;100649.31;;;23.54;84.62
50434;BME280;36361;38.954;-9.002;2022-09-20T02:45:13;100652.63;;;23.56;86.11
50434;BME280;36361;38.954;-9.002;2022-09-20T02:46:36;100655.19;;;23.52;84.14
50434;BME280;36361;38.954;-9.002;2022-09-20T02:47:42;100654.09;;;23.35;84.66
50434;BME280;36361;38.954;-9.002;2022-09-20T02:49:03;100651.81;;;23.55;84.82
50434;BME280;36361;38.954;-9.002;2022-09-20T02:51:40;100656.00;;;23.72;83.29
50434;BME280;36361;38.954;-9.002;2022-09-20T02:53:06;100655.50;;;23.70;83.14
50434;BME280;36361;38.954;-9.002;2022-09-20T02:55:22;100647.19;;;23.83;87.44
50434;BME280;36361;38.954;-9.002;2022-09-20T02:58:00;100648.53;;;23.86;87.74
50434;BME280;36361;38.954;-9.002;2022-09-20T02:59:02;100653.56;;;23.84;83.95
50434;BME280;36361;38.954;-9.002;2022-09-20T03:00:17;100649.06;;;23.88;86.69
50434;BME280;36361;38.954;-9.002;2022-09-20T03:02:31;100639.16;;;23.82;80.61
50434;BME280;36361;38.954;-9.002;2022-09-20T03:06:48;100641.69;;;23.97;79.25
50434;BME280;36361;38.954;-9.002;2022-09-20T03:09:18;100643.91;;;23.95;81.54
50434;BME280;36361;38.954;-9.002;2022-09-20T03:14:27;100645.94;;;23.76;78.69
50434;BME280;36361;38.954;-9.002;2022-09-20T03:15:37;100633.81;;;23.86;77.85
50434;BME280;36361;38.954;-9.002;2022-09-20T03:17:04;100636.47;;;23.77;81.82
50434;BME280;36361;38.954;-9.002;2022-09-20T03:18:14;100637.50;;;23.81;79.64
50434;BME280;36361;38.954;-9.002;2022-09-20T03:19:28;100635.06;;;23.93;77.87
50434;BME280;36361;38.954;-9.002;2022-09-20T03:20:38;100635.69;;;24.04;76.78
50434;BME280;36361;38.954;-9.002;2022-09-20T03:22:11;100643.50;;;23.88;77.44
50434;BME280;36361;38.954;-9.002;2022-09-20T03:27:38;100640.19;;;23.86;76.76
50434;BME280;36361;38.954;-9.002;2022-09-20T03:30:19;100637.41;;;23.86;77.77
50434;BME280;36361;38.954;-9.002;2022-09-20T03:31:37;100636.13;;;23.97;76.75
50434;BME280;36361;38.954;-9.002;2022-09-20T03:36:04;100639.97;;;23.69;79.40
50434;BME280;36361;38.954;-9.002;2022-09-20T03:42:45;100632.25;;;22.90;84.45
50434;BME280;36361;38.954;-9.002;2022-09-20T03:46:28;100639.75;;;22.66;84.99
50434;BME280;36361;38.954;-9.002;2022-09-20T03:47:47;100635.44;;;22.55;85.83
50434;BME280;36361;38.954;-9.002;2022-09-20T03:51:53;100629.59;;;22.56;86.36
50434;BME280;36361;38.954;-9.002;2022-09-20T03:55:56;100625.25;;;22.26;87.10
50434;BME280;36361;38.954;-9.002;2022-09-20T04:00:55;100634.03;;;22.33;87.79
50434;BME280;36361;38.954;-9.002;2022-09-20T04:07:20;100634.09;;;22.28;88.51
50434;BME280;36361;38.954;-9.002;2022-09-20T04:12:55;100630.91;;;22.16;89.62
50434;BME280;36361;38.954;-9.002;2022-09-20T04:14:46;100627.63;;;22.14;89.56
50434;BME280;36361;38.954;-9.002;2022-09-20T04:17:49;100633.78;;;22.30;89.06
50434;BME280;36361;38.954;-9.002;2022-09-20T04:19:15;100630.44;;;22.09;89.38
50434;BME280;36361;38.954;-9.002;2022-09-20T04:21:55;100627.88;;;21.83;90.67
50434;BME280;36361;38.954;-9.002;2022-09-20T04:23:00;100633.75;;;22.06;89.18
50434;BME280;36361;38.954;-9.002;2022-09-20T04:24:24;100619.66;;;22.02;89.24
50434;BME280;36361;38.954;-9.002;2022-09-20T04:25:37;100619.91;;;22.06;89.49
50434;BME280;36361;38.954;-9.002;2022-09-20T04:26:44;100617.22;;;22.25;88.80
50434;BME280;36361;38.954;-9.002;2022-09-20T04:27:50;100616.56;;;22.09;89.54
50434;BME280;36361;38.954;-9.002;2022-09-20T04:29:04;100628.06;;;22.21;88.43
50434;BME280;36361;38.954;-9.002;2022-09-20T04:30:25;100617.69;;;22.08;90.23
50434;BME280;36361;38.954;-9.002;2022-09-20T04:31:54;100620.56;;;21.93;90.64
50434;BME280;36361;38.954;-9.002;2022-09-20T04:33:17;100619.75;;;21.92;90.33
50434;BME280;36361;38.954;-9.002;2022-09-20T04:37:35;100615.47;;;22.05;88.61
50434;BME280;36361;38.954;-9.002;2022-09-20T04:38:38;100616.53;;;22.14;88.08
50434;BME280;36361;38.954;-9.002;2022-09-20T04:39:46;100622.72;;;22.01;89.24
50434;BME280;36361;38.954;-9.002;2022-09-20T04:41:06;100616.13;;;21.97;89.82
50434;BME280;36361;38.954;-9.002;2022-09-20T04:42:32;100613.34;;;21.97;89.33
50434;BME280;36361;38.954;-9.002;2022-09-20T04:45:34;100609.38;;;22.03;89.16
50434;BME280;36361;38.954;-9.002;2022-09-20T04:52:57;100614.00;;;22.41;86.61
50434;BME280;36361;38.954;-9.002;2022-09-20T04:56:57;100617.81;;;22.46;86.31
50434;BME280;36361;38.954;-9.002;2022-09-20T05:00:05;100621.94;;;22.24;87.19
50434;BME280;36361;38.954;-9.002;2022-09-20T05:03:02;100623.19;;;22.13;86.93
50434;BME280;36361;38.954;-9.002;2022-09-20T05:11:51;100608.81;;;22.06;86.90
50434;BME280;36361;38.954;-9.002;2022-09-20T05:14:37;100604.63;;;22.13;87.25
50434;BME280;36361;38.954;-9.002;2022-09-20T05:15:55;100616.41;;;21.95;88.24
50434;BME280;36361;38.954;-9.002;2022-09-20T05:26:49;100614.28;;;21.87;87.46
50434;BME280;36361;38.954;-9.002;2022-09-20T05:30:22;100616.69;;;21.94;87.57
50434;BME280;36361;38.954;-9.002;2022-09-20T05:32:26;100616.44;;;21.90;87.65
50434;BME280;36361;38.954;-9.002;2022-09-20T05:33:12;100621.78;;;21.86;87.07
50434;BME280;36361;38.954;-9.002;2022-09-20T05:40:17;100619.41;;;21.99;86.32
50434;BME280;36361;38.954;-9.002;2022-09-20T05:41:29;100625.88;;;22.18;85.29
50434;BME280;36361;38.954;-9.002;2022-09-20T05:48:13;100626.31;;;21.72;86.38
50434;BME280;36361;38.954;-9.002;2022-09-20T05:52:58;100630.19;;;21.76;86.68
50434;BME280;36361;38.954;-9.002;2022-09-20T06:00:49;100633.59;;;21.63;86.50
50434;BME280;36361;38.954;-9.002;2022-09-20T06:06:20;100639.44;;;21.62;88.69
50434;BME280;36361;38.954;-9.002;2022-09-20T06:08:23;100638.09;;;21.54;88.88
50434;BME280;36361;38.954;-9.002;2022-09-20T06:12:34;100629.63;;;21.74;85.68
50434;BME280;36361;38.954;-9.002;2022-09-20T06:15:26;100639.66;;;21.65;86.06
50434;BME280;36361;38.954;-9.002;2022-09-20T06:18:24;100642.59;;;21.79;86.96
50434;BME280;36361;38.954;-9.002;2022-09-20T06:21:19;100647.22;;;21.89;86.92
50434;BME280;36361;38.954;-9.002;2022-09-20T06:22:37;100641.59;;;21.99;84.39
50434;BME280;36361;38.954;-9.002;2022-09-20T06:23:38;100640.88;;;21.88;85.25
50434;BME280;36361;38.954;-9.002;2022-09-20T06:24:48;100642.03;;;21.82;85.03
50434;BME280;36361;38.954;-9.002;2022-09-20T06:25:56;100656.16;;;21.80;85.52
50434;BME280;36361;38.954;-9.002;2022-09-20T06:27:03;100663.69;;;21.75;87.00
50434;BME280;36361;38.954;-9.002;2022-09-20T06:28:15;100656.75;;;21.77;86.84
50434;BME280;36361;38.954;-9.002;2022-09-20T06:29:42;100659.78;;;21.76;86.23
50434;BME280;36361;38.954;-9.002;2022-09-20T06:31:46;100658.97;;;21.75;86.45
50434;BME280;36361;38.954;-9.002;2022-09-20T06:33:09;100659.94;;;21.95;86.25
50434;BME280;36361;38.954;-9.002;2022-09-20T06:34:13;100660.06;;;21.79;86.64
50434;BME280;36361;38.954;-9.002;2022-09-20T06:35:15;100667.47;;;21.84;87.44
50434;BME280;36361;38.954;-9.002;2022-09-20T06:36:35;100666.09;;;21.86;87.01
50434;BME280;36361;38.954;-9.002;2022-09-20T06:38:11;100660.06;;;21.79;86.50
50434;BME280;36361;38.954;-9.002;2022-09-20T06:41:06;100661.56;;;21.96;86.02
50434;BME280;36361;38.954;-9.002;2022-09-20T06:42:27;100663.16;;;22.02;84.61
50434;BME280;36361;38.954;-9.002;2022-09-20T06:43:28;100666.91;;;21.87;84.62
50434;BME280;36361;38.954;-9.002;2022-09-20T06:44:31;100666.56;;;21.94;85.18
50434;BME280;36361;38.954;-9.002;2022-09-20T06:45:32;100674.34;;;21.92;85.73
50434;BME280;36361;38.954;-9.002;2022-09-20T06:46:34;100663.25;;;21.92;85.62
50434;BME280;36361;38.954;-9.002;2022-09-20T06:47:35;100667.34;;;22.28;83.83
50434;BME280;36361;38.954;-9.002;2022-09-20T06:48:37;100666.88;;;22.21;83.42
50434;BME280;36361;38.954;-9.002;2022-09-20T06:49:39;100670.72;;;22.25;85.08
50434;BME280;36361;38.954;-9.002;2022-09-20T06:50:43;100669.56;;;22.31;84.56
50434;BME280;36361;38.954;-9.002;2022-09-20T06:51:46;100673.38;;;22.35;83.81
50434;BME280;36361;38.954;-9.002;2022-09-20T06:52:49;100673.16;;;22.56;83.51
50434;BME280;36361;38.954;-9.002;2022-09-20T06:53:53;100674.22;;;22.60;83.73
50434;BME280;36361;38.954;-9.002;2022-09-20T06:54:56;100674.03;;;22.75;83.30
50434;BME280;36361;38.954;-9.002;2022-09-20T06:55:59;100676.91;;;22.65;83.66
50434;BME280;36361;38.954;-9.002;2022-09-20T06:57:06;100679.28;;;22.53;84.37
50434;BME280;36361;38.954;-9.002;2022-09-20T06:58:10;100679.28;;;22.53;84.67
50434;BME280;36361;38.954;-9.002;2022-09-20T06:59:11;100681.66;;;22.64;84.46
50434;BME280;36361;38.954;-9.002;2022-09-20T07:00:13;100680.16;;;22.72;84.50
50434;BME280;36361;38.954;-9.002;2022-09-20T07:01:15;100678.81;;;22.69;83.65
50434;BME280;36361;38.954;-9.002;2022-09-20T07:02:16;100682.81;;;22.82;82.66
50434;BME280;36361;38.954;-9.002;2022-09-20T07:03:16;100684.13;;;22.90;82.04
50434;BME280;36361;38.954;-9.002;2022-09-20T07:04:19;100685.00;;;22.85;82.81
50434;BME280;36361;38.954;-9.002;2022-09-20T07:05:21;100680.53;;;22.89;82.66
50434;BME280;36361;38.954;-9.002;2022-09-20T07:06:23;100685.56;;;22.87;81.85
50434;BME280;36361;38.954;-9.002;2022-09-20T07:07:24;100688.22;;;22.97;81.07
50434;BME280;36361;38.954;-9.002;2022-09-20T07:08:25;100693.25;;;22.95;82.05
50434;BME280;36361;38.954;-9.002;2022-09-20T07:09:29;100685.13;;;22.99;81.70
50434;BME280;36361;38.954;-9.002;2022-09-20T07:10:32;100691.19;;;23.01;81.58
50434;BME280;36361;38.954;-9.002;2022-09-20T07:11:33;100688.72;;;22.99;81.56
50434;BME280;36361;38.954;-9.002;2022-09-20T07:12:34;100687.75;;;22.90;82.49
50434;BME280;36361;38.954;-9.002;2022-09-20T07:13:42;100691.16;;;23.06;81.75
50434;BME280;36361;38.954;-9.002;2022-09-20T07:14:43;100683.19;;;22.99;82.69
50434;BME280;36361;38.954;-9.002;2022-09-20T07:15:43;100689.25;;;23.02;81.64
50434;BME280;36361;38.954;-9.002;2022-09-20T07:16:44;100690.53;;;23.09;80.60
50434;BME280;36361;38.954;-9.002;2022-09-20T07:17:45;100688.44;;;23.20;81.05
50434;BME280;36361;38.954;-9.002;2022-09-20T07:18:47;100686.78;;;23.19;81.09
50434;BME280;36361;38.954;-9.002;2022-09-20T07:19:48;100685.91;;;23.23;80.62
50434;BME280;36361;38.954;-9.002;2022-09-20T07:20:48;100688.28;;;23.30;80.57
50434;BME280;36361;38.954;-9.002;2022-09-20T07:21:49;100688.53;;;23.34;79.98
50434;BME280;36361;38.954;-9.002;2022-09-20T07:22:50;100690.50;;;23.33;80.38
50434;BME280;36361;38.954;-9.002;2022-09-20T07:23:51;100686.06;;;23.32;80.58
50434;BME280;36361;38.954;-9.002;2022-09-20T07:24:53;100692.03;;;23.39;80.47
50434;BME280;36361;38.954;-9.002;2022-09-20T07:25:55;100695.13;;;23.38;80.88
50434;BME280;36361;38.954;-9.002;2022-09-20T07:27:02;100685.81;;;23.47;80.42
50434;BME280;36361;38.954;-9.002;2022-09-20T07:28:04;100693.00;;;23.48;80.08
50434;BME280;36361;38.954;-9.002;2022-09-20T07:29:05;100684.31;;;23.55;80.02
50434;BME280;36361;38.954;-9.002;2022-09-20T07:30:07;100689.22;;;23.63;81.02
50434;BME280;36361;38.954;-9.002;2022-09-20T07:31:08;100686.22;;;23.60;81.22
50434;BME280;36361;38.954;-9.002;2022-09-20T07:32:15;100689.16;;;23.68;80.35
50434;BME280;36361;38.954;-9.002;2022-09-20T07:33:17;100685.88;;;23.80;79.55
50434;BME280;36361;38.954;-9.002;2022-09-20T07:34:21;100684.38;;;23.88;78.34
50434;BME280;36361;38.954;-9.002;2022-09-20T07:35:22;100688.28;;;23.87;78.26
50434;BME280;36361;38.954;-9.002;2022-09-20T07:36:24;100694.50;;;23.97;77.16
50434;BME280;36361;38.954;-9.002;2022-09-20T07:37:25;100692.31;;;23.94;74.95
50434;BME280;36361;38.954;-9.002;2022-09-20T07:38:25;100694.94;;;23.86;75.46
50434;BME280;36361;38.954;-9.002;2022-09-20T07:39:26;100683.88;;;23.99;74.79
50434;BME280;36361;38.954;-9.002;2022-09-20T07:40:26;100693.00;;;24.19;73.57
50434;BME280;36361;38.954;-9.002;2022-09-20T07:41:27;100685.16;;;24.21;73.51
50434;BME280;36361;38.954;-9.002;2022-09-20T07:42:30;100688.44;;;24.23;73.09
50434;BME280;36361;38.954;-9.002;2022-09-20T07:43:31;100694.00;;;24.23;73.95
50434;BME280;36361;38.954;-9.002;2022-09-20T07:44:32;100693.56;;;24.34;73.67
50434;BME280;36361;38.954;-9.002;2022-09-20T07:45:35;100689.75;;;24.44;72.79
50434;BME280;36361;38.954;-9.002;2022-09-20T07:46:38;100690.34;;;24.41;72.25
50434;BME280;36361;38.954;-9.002;2022-09-20T07:47:38;100693.69;;;24.43;73.81
50434;BME280;36361;38.954;-9.002;2022-09-20T07:48:41;100689.97;;;24.61;72.04
50434;BME280;36361;38.954;-9.002;2022-09-20T07:49:42;100695.56;;;24.61;71.42
50434;BME280;36361;38.954;-9.002;2022-09-20T07:50:50;100696.16;;;24.58;70.75
50434;BME280;36361;38.954;-9.002;2022-09-20T07:51:52;100695.34;;;24.72;70.28
50434;BME280;36361;38.954;-9.002;2022-09-20T07:52:59;100696.78;;;24.83;69.85
50434;BME280;36361;38.954;-9.002;2022-09-20T07:54:07;100698.84;;;24.91;69.36
50434;BME280;36361;38.954;-9.002;2022-09-20T07:55:14;100698.19;;;24.94;68.74
50434;BME280;36361;38.954;-9.002;2022-09-20T07:56:23;100704.19;;;25.01;69.01
50434;BME280;36361;38.954;-9.002;2022-09-20T07:57:35;100704.41;;;25.05;68.94
50434;BME280;36361;38.954;-9.002;2022-09-20T07:58:44;100703.56;;;24.90;70.97
50434;BME280;36361;38.954;-9.002;2022-09-20T07:59:53;100712.47;;;25.06;72.93
50434;BME280;36361;38.954;-9.002;2022-09-20T08:01:04;100703.88;;;25.03;76.82
50434;BME280;36361;38.954;-9.002;2022-09-20T08:02:15;100706.44;;;24.99;79.24
50434;BME280;36361;38.954;-9.002;2022-09-20T08:03:21;100708.63;;;25.02;80.21
50434;BME280;36361;38.954;-9.002;2022-09-20T08:04:24;100711.66;;;25.06;80.70
50434;BME280;36361;38.954;-9.002;2022-09-20T08:05:25;100703.47;;;25.09;80.70
50434;BME280;36361;38.954;-9.002;2022-09-20T08:06:26;100711.19;;;25.12;81.28
50434;BME280;36361;38.954;-9.002;2022-09-20T08:07:28;100715.22;;;25.20;80.86
50434;BME280;36361;38.954;-9.002;2022-09-20T08:08:36;100716.97;;;25.16;81.60
50434;BME280;36361;38.954;-9.002;2022-09-20T08:09:37;100718.19;;;24.96;83.58
50434;BME280;36361;38.954;-9.002;2022-09-20T08:10:37;100713.88;;;24.90;83.81
50434;BME280;36361;38.954;-9.002;2022-09-20T08:11:41;100714.81;;;24.99;83.83
50434;BME280;36361;38.954;-9.002;2022-09-20T08:12:42;100717.19;;;24.92;84.43
50434;BME280;36361;38.954;-9.002;2022-09-20T08:13:47;100713.47;;;24.96;84.52
50434;BME280;36361;38.954;-9.002;2022-09-20T08:14:48;100720.97;;;24.96;84.75
50434;BME280;36361;38.954;-9.002;2022-09-20T08:15:49;100717.28;;;24.87;84.90
50434;BME280;36361;38.954;-9.002;2022-09-20T08:16:50;100722.53;;;24.75;85.36
50434;BME280;36361;38.954;-9.002;2022-09-20T08:17:51;100712.34;;;24.84;84.63
50434;BME280;36361;38.954;-9.002;2022-09-20T08:18:54;100716.53;;;24.95;84.02
50434;BME280;36361;38.954;-9.002;2022-09-20T08:19:56;100724.50;;;24.88;84.60
50434;BME280;36361;38.954;-9.002;2022-09-20T08:21:02;100716.91;;;25.07;84.61
50434;BME280;36361;38.954;-9.002;2022-09-20T08:22:05;100726.53;;;24.96;85.00
50434;BME280;36361;38.954;-9.002;2022-09-20T08:23:06;100724.91;;;24.95;85.90
50434;BME280;36361;38.954;-9.002;2022-09-20T08:24:12;100722.97;;;24.82;86.21
50434;BME280;36361;38.954;-9.002;2022-09-20T08:25:13;100720.50;;;24.80;86.63
50434;BME280;36361;38.954;-9.002;2022-09-20T08:26:17;100727.69;;;24.95;85.06
50434;BME280;36361;38.954;-9.002;2022-09-20T08:27:18;100728.81;;;24.94;85.05
50434;BME280;36361;38.954;-9.002;2022-09-20T08:28:19;100723.97;;;24.86;85.64
50434;BME280;36361;38.954;-9.002;2022-09-20T08:29:19;100728.34;;;25.06;85.63
50434;BME280;36361;38.954;-9.002;2022-09-20T08:30:20;100727.31;;;25.15;84.29
50434;BME280;36361;38.954;-9.002;2022-09-20T08:31:28;100732.25;;;25.18;85.02
50434;BME280;36361;38.954;-9.002;2022-09-20T08:32:33;100732.47;;;25.08;85.14
50434;BME280;36361;38.954;-9.002;2022-09-20T08:33:35;100738.72;;;25.00;85.42
50434;BME280;36361;38.954;-9.002;2022-09-20T08:34:38;100736.16;;;25.17;84.73
50434;BME280;36361;38.954;-9.002;2022-09-20T08:35:40;100740.38;;;25.29;84.82
50434;BME280;36361;38.954;-9.002;2022-09-20T08:36:44;100743.56;;;25.36;84.61
50434;BME280;36361;38.954;-9.002;2022-09-20T08:37:54;100742.41;;;25.37;83.81
50434;BME280;36361;38.954;-9.002;2022-09-20T08:38:58;100752.41;;;25.38;84.20
50434;BME280;36361;38.954;-9.002;2022-09-20T08:40:02;100745.97;;;25.51;83.35
50434;BME280;36361;38.954;-9.002;2022-09-20T08:42:33;100755.09;;;25.43;83.58
50434;BME280;36361;38.954;-9.002;2022-09-20T08:44:02;100746.44;;;25.31;84.51
50434;BME280;36361;38.954;-9.002;2022-09-20T08:45:25;100748.84;;;25.60;83.19
50434;BME280;36361;38.954;-9.002;2022-09-20T08:46:33;100755.63;;;25.67;82.70
50434;BME280;36361;38.954;-9.002;2022-09-20T08:47:36;100756.56;;;25.76;82.47
50434;BME280;36361;38.954;-9.002;2022-09-20T08:48:46;100762.50;;;25.47;83.71
50434;BME280;36361;38.954;-9.002;2022-09-20T08:49:59;100757.53;;;25.58;82.89
50434;BME280;36361;38.954;-9.002;2022-09-20T08:51:12;100755.88;;;25.57;82.68